createdAt,value
2023-02-24T00:02:20.169Z,20.93
2023-02-24T00:04:52.036Z,22.57
2023-02-24T00:07:23.045Z,20.50
2023-02-24T00:09:55.685Z,19.60
2023-02-24T00:12:25.769Z,20.40
2023-02-24T00:14:55.780Z,19.53
2023-02-24T00:17:27.908Z,19.97
2023-02-24T00:19:58.086Z,18.23
2023-02-24T00:22:28.546Z,19.07
2023-02-24T00:25:01.431Z,20.00
2023-02-24T00:27:32.171Z,18.00
2023-02-24T00:30:02.206Z,19.80
2023-02-24T00:32:32.368Z,19.60
2023-02-24T00:35:02.499Z,19.70
2023-02-24T00:37:33.125Z,17.57
2023-02-24T00:40:11.381Z,19.87
2023-02-24T00:42:42.744Z,19.97
2023-02-24T00:45:16.782Z,20.07
2023-02-24T00:47:46.791Z,18.83
2023-02-24T00:50:17.403Z,19.00
2023-02-24T00:52:47.357Z,19.87
2023-02-24T00:55:22.363Z,19.67
2023-02-24T00:57:53.157Z,20.10
2023-02-24T01:00:25.495Z,22.10
2023-02-24T01:02:59.517Z,21.83
2023-02-24T01:05:30.057Z,21.90
2023-02-24T01:08:00.663Z,20.93
2023-02-24T01:10:36.076Z,19.23
2023-02-24T01:13:03.722Z,20.97
2023-02-24T01:15:33.752Z,20.90
2023-02-24T01:18:03.730Z,23.77
2023-02-24T01:20:34.616Z,22.77
2023-02-24T01:23:04.611Z,26.07
2023-02-24T01:25:37.296Z,26.20
2023-02-24T01:28:11.159Z,26.37
2023-02-24T01:30:43.131Z,28.40
2023-02-24T01:33:14.753Z,28.43
2023-02-24T01:35:45.066Z,31.23
2023-02-24T01:38:15.129Z,28.17
2023-02-24T01:40:50.510Z,26.30
2023-02-24T01:43:22.147Z,25.77
2023-02-24T01:45:56.244Z,24.83
2023-02-24T01:48:28.186Z,24.67
2023-02-24T01:50:58.596Z,26.70
2023-02-24T01:53:28.602Z,23.23
2023-02-24T01:56:01.166Z,28.60
2023-02-24T01:58:33.696Z,29.53
2023-02-24T02:01:08.889Z,26.40
2023-02-24T02:03:44.663Z,27.57
2023-02-24T02:06:18.434Z,29.07
2023-02-24T02:08:48.816Z,28.37
2023-02-24T02:11:22.753Z,29.73
2023-02-24T02:13:57.024Z,31.27
2023-02-24T02:17:02.735Z,29.23
2023-02-24T02:20:15.857Z,32.27
2023-02-24T02:23:22.461Z,31.27
2023-02-24T02:26:22.406Z,36.47
2023-02-24T02:29:41.625Z,33.43
2023-02-24T02:32:53.241Z,35.40
2023-02-24T02:35:36.894Z,32.50
2023-02-24T02:38:17.764Z,30.30
2023-02-24T02:41:01.347Z,31.77
2023-02-24T02:43:40.086Z,30.80
2023-02-24T02:46:15.966Z,29.97
2023-02-24T02:48:56.897Z,30.73
2023-02-24T02:51:38.908Z,34.10
2023-02-24T02:54:18.700Z,30.10
2023-02-24T02:56:59.542Z,32.97
2023-02-24T02:59:35.182Z,32.30
2023-02-24T03:02:15.145Z,28.93
2023-02-24T03:04:56.062Z,28.97
2023-02-24T03:07:37.669Z,31.87
2023-02-24T03:10:17.736Z,31.43
2023-02-24T03:12:53.548Z,29.30
2023-02-24T03:15:30.345Z,31.30
2023-02-24T03:18:10.617Z,30.43
2023-02-24T03:20:49.507Z,30.50
2023-02-24T03:23:27.248Z,32.03
2023-02-24T03:26:07.858Z,32.40
2023-02-24T03:28:45.630Z,33.80
2023-02-24T03:31:27.798Z,32.67
2023-02-24T03:34:07.663Z,33.40
2023-02-24T03:36:38.857Z,32.00
2023-02-24T03:39:12.737Z,32.13
2023-02-24T03:41:58.878Z,33.07
2023-02-24T03:44:31.703Z,33.00
2023-02-24T03:47:04.385Z,32.57
2023-02-24T03:49:38.373Z,32.97
2023-02-24T03:52:24.505Z,34.17
2023-02-24T03:55:33.310Z,35.77
2023-02-24T03:58:21.164Z,32.33
2023-02-24T04:01:05.730Z,32.87
2023-02-24T04:03:51.998Z,32.20
2023-02-24T04:06:49.825Z,32.17
2023-02-24T04:09:33.357Z,31.90
2023-02-24T04:12:24.061Z,32.37
2023-02-24T04:15:08.699Z,32.20
2023-02-24T04:17:47.135Z,33.27
2023-02-24T04:20:22.903Z,34.07
2023-02-24T04:23:08.794Z,30.17
2023-02-24T04:25:41.767Z,31.70
2023-02-24T04:28:19.031Z,33.40
2023-02-24T04:30:55.712Z,30.60
2023-02-24T04:33:27.377Z,30.80
2023-02-24T04:35:57.474Z,34.10
2023-02-24T04:38:28.854Z,33.30
2023-02-24T04:40:58.851Z,31.10
2023-02-24T04:43:31.531Z,31.13
2023-02-24T04:46:07.650Z,31.20
2023-02-24T04:48:39.119Z,29.70
2023-02-24T04:51:09.255Z,33.70
2023-02-24T04:53:39.283Z,31.70
2023-02-24T04:56:11.169Z,31.40
2023-02-24T04:58:46.451Z,31.57
2023-02-24T05:01:16.951Z,30.50
2023-02-24T05:03:47.785Z,31.13
2023-02-24T05:06:20.850Z,31.50
2023-02-24T05:08:52.539Z,33.30
2023-02-24T05:11:23.282Z,33.77
2023-02-24T05:13:57.198Z,33.67
2023-02-24T05:16:28.883Z,32.37
2023-02-24T05:19:11.223Z,35.90
2023-02-24T05:21:41.922Z,37.20
2023-02-24T05:24:17.222Z,34.30
2023-02-24T05:26:47.345Z,35.30
2023-02-24T05:29:20.041Z,35.33
2023-02-24T05:31:50.187Z,36.67
2023-02-24T05:34:20.232Z,36.23
2023-02-24T05:36:50.313Z,36.20
2023-02-24T05:39:21.921Z,33.90
2023-02-24T05:41:54.782Z,34.33
2023-02-24T05:44:31.804Z,32.10
2023-02-24T05:47:02.135Z,37.50
2023-02-24T05:49:38.898Z,32.00
2023-02-24T05:52:11.168Z,37.13
2023-02-24T05:54:45.347Z,36.33
2023-02-24T05:57:21.124Z,34.47
2023-02-24T05:59:55.976Z,32.97
2023-02-24T06:02:27.898Z,34.97
2023-02-24T06:05:00.972Z,35.73
2023-02-24T06:07:34.588Z,36.93
2023-02-24T06:10:10.320Z,34.43
2023-02-24T06:12:40.304Z,36.83
2023-02-24T06:15:14.004Z,36.93
2023-02-24T06:17:45.170Z,34.30
2023-02-24T06:20:17.161Z,39.57
2023-02-24T06:22:47.146Z,37.00
2023-02-24T06:25:18.611Z,35.47
2023-02-24T06:27:53.173Z,35.57
2023-02-24T06:30:27.571Z,35.13
2023-02-24T06:32:57.657Z,35.60
2023-02-24T06:35:27.837Z,40.63
2023-02-24T06:37:58.455Z,36.93
2023-02-24T06:40:28.419Z,33.73
2023-02-24T06:42:58.580Z,36.03
2023-02-24T06:45:32.216Z,35.50
2023-02-24T06:48:03.573Z,34.07
2023-02-24T06:50:33.621Z,37.07
2023-02-24T06:53:03.619Z,35.07
2023-02-24T06:55:35.616Z,37.20
2023-02-24T06:58:06.350Z,36.13
2023-02-24T07:00:43.033Z,34.27
2023-02-24T07:03:19.592Z,32.90
2023-02-24T07:05:54.518Z,37.40
2023-02-24T07:08:27.577Z,31.77
2023-02-24T07:11:00.008Z,38.77
2023-02-24T07:13:31.466Z,37.87
2023-02-24T07:16:07.349Z,37.37
2023-02-24T07:18:40.826Z,34.70
2023-02-24T07:21:12.852Z,34.97
2023-02-24T07:23:44.071Z,35.70
2023-02-24T07:26:17.084Z,34.00
2023-02-24T07:28:49.258Z,33.33
2023-02-24T07:31:26.024Z,37.00
2023-02-24T07:33:58.488Z,36.27
2023-02-24T07:36:30.515Z,34.97
2023-02-24T07:39:03.603Z,35.83
2023-02-24T07:41:33.637Z,34.70
2023-02-24T07:44:05.973Z,35.00
2023-02-24T07:46:38.626Z,36.30
2023-02-24T07:49:09.753Z,35.43
2023-02-24T07:51:39.730Z,35.67
2023-02-24T07:54:11.445Z,36.30
2023-02-24T07:56:46.195Z,28.37
2023-02-24T07:59:19.694Z,25.47
2023-02-24T08:01:55.900Z,23.47
2023-02-24T08:04:30.247Z,25.87
2023-02-24T08:07:03.372Z,24.30
2023-02-24T08:10:03.567Z,23.10
2023-02-24T08:12:35.244Z,27.87
2023-02-24T08:15:17.485Z,25.23
2023-02-24T08:17:50.543Z,27.83
2023-02-24T08:20:36.144Z,25.97
2023-02-24T08:23:08.736Z,35.50
2023-02-24T08:25:38.799Z,35.03
2023-02-24T08:28:11.832Z,36.90
2023-02-24T08:30:46.110Z,36.90
2023-02-24T08:33:28.440Z,34.40
2023-02-24T08:36:02.119Z,32.50
2023-02-24T08:38:44.769Z,29.93
2023-02-24T08:41:18.627Z,33.70
2023-02-24T08:43:50.424Z,32.70
2023-02-24T08:46:26.837Z,36.67
2023-02-24T08:49:02.821Z,35.23
2023-02-24T08:51:36.422Z,34.10
2023-02-24T08:54:11.386Z,36.83
2023-02-24T08:56:44.205Z,37.80
2023-02-24T08:59:29.453Z,39.57
2023-02-24T09:02:14.359Z,36.67
2023-02-24T09:04:48.236Z,35.07
2023-02-24T09:07:20.932Z,37.20
2023-02-24T09:09:56.357Z,40.93
2023-02-24T09:12:29.366Z,34.13
2023-02-24T09:15:04.768Z,35.60
2023-02-24T09:17:50.200Z,28.90
2023-02-24T09:20:38.968Z,30.20
2023-02-24T09:23:09.745Z,26.90
2023-02-24T09:25:49.518Z,23.70
2023-02-24T09:28:24.718Z,25.23
2023-02-24T09:30:57.382Z,23.13
2023-02-24T09:33:38.992Z,22.03
2023-02-24T09:36:20.348Z,21.83
2023-02-24T09:39:06.228Z,23.37
2023-02-24T09:41:53.870Z,23.43
2023-02-24T09:44:34.112Z,21.50
2023-02-24T09:47:19.977Z,19.00
2023-02-24T09:49:59.210Z,19.07
2023-02-24T09:52:43.597Z,19.57
2023-02-24T09:55:25.197Z,21.30
2023-02-24T09:58:16.271Z,18.07
2023-02-24T10:00:58.504Z,19.77
2023-02-24T10:03:48.413Z,18.50
2023-02-24T10:06:26.880Z,17.47
2023-02-24T10:09:15.071Z,18.37
2023-02-24T10:11:56.206Z,17.93
2023-02-24T10:14:43.734Z,17.57
2023-02-24T10:17:40.345Z,16.43
2023-02-24T10:20:31.176Z,22.43
2023-02-24T10:23:10.053Z,22.80
2023-02-24T10:25:56.560Z,26.50
2023-02-24T10:28:39.096Z,25.97
2023-02-24T10:31:25.639Z,25.73
2023-02-24T10:34:06.209Z,24.83
2023-02-24T10:36:39.234Z,26.53
2023-02-24T10:39:20.547Z,26.87
2023-02-24T10:41:57.681Z,26.87
2023-02-24T10:44:36.352Z,25.07
2023-02-24T10:47:17.861Z,25.63
2023-02-24T10:49:59.545Z,24.07
2023-02-24T10:52:51.067Z,24.93
2023-02-24T10:55:50.762Z,24.77
2023-02-24T10:58:38.183Z,22.20
2023-02-24T11:01:18.686Z,22.40
2023-02-24T11:04:22.666Z,22.90
2023-02-24T11:06:57.950Z,22.40
2023-02-24T11:09:43.960Z,21.07
2023-02-24T11:12:34.985Z,20.77
2023-02-24T11:15:44.419Z,18.20
2023-02-24T11:18:23.229Z,17.47
2023-02-24T11:20:58.317Z,17.47
2023-02-24T11:23:31.289Z,16.67
2023-02-24T11:26:05.369Z,16.77
2023-02-24T11:29:01.107Z,14.17
2023-02-24T11:31:52.407Z,15.70
2023-02-24T11:34:31.140Z,17.07
2023-02-24T11:37:21.131Z,15.70
2023-02-24T11:40:01.633Z,13.73
2023-02-24T11:42:43.792Z,15.13
2023-02-24T11:45:29.880Z,16.20
2023-02-24T11:48:15.182Z,13.67
2023-02-24T11:50:50.006Z,16.20
2023-02-24T11:53:35.083Z,16.23
2023-02-24T11:56:13.441Z,17.40
2023-02-24T11:58:52.025Z,20.50
2023-02-24T12:01:30.512Z,17.60
2023-02-24T12:04:21.968Z,19.50
2023-02-24T12:07:00.381Z,19.20
2023-02-24T12:09:37.146Z,21.20
2023-02-24T12:12:16.637Z,21.60
2023-02-24T12:14:56.608Z,20.83
2023-02-24T12:17:44.422Z,22.60
2023-02-24T12:20:28.542Z,21.37
2023-02-24T12:23:04.014Z,21.93
2023-02-24T12:25:46.860Z,19.00
2023-02-24T12:28:29.737Z,18.43
2023-02-24T12:31:19.790Z,18.73
2023-02-24T12:34:08.672Z,18.33
2023-02-24T12:37:19.750Z,17.77
2023-02-24T12:40:05.834Z,17.47
2023-02-24T12:42:46.890Z,17.50
2023-02-24T12:45:28.906Z,16.90
2023-02-24T12:48:22.705Z,14.30
2023-02-24T12:51:03.041Z,14.67
2023-02-24T12:53:46.666Z,15.90
2023-02-24T12:56:24.453Z,14.53
2023-02-24T12:59:05.469Z,14.20
2023-02-24T13:01:49.808Z,14.50
2023-02-24T13:04:40.165Z,15.20
2023-02-24T13:07:37.489Z,14.20
2023-02-24T13:10:31.119Z,15.07
2023-02-24T13:13:14.105Z,12.47
2023-02-24T13:15:54.700Z,12.37
2023-02-24T13:18:31.093Z,11.43
2023-02-24T13:21:24.759Z,13.07
2023-02-24T13:24:02.483Z,10.73
2023-02-24T13:26:35.788Z,12.50
2023-02-24T13:29:14.592Z,14.10
2023-02-24T13:31:48.714Z,13.57
2023-02-24T13:34:35.343Z,10.90
2023-02-24T13:37:06.256Z,10.97
2023-02-24T13:39:41.479Z,11.23
2023-02-24T13:42:26.853Z,10.73
2023-02-24T13:45:06.558Z,10.70
2023-02-24T13:48:13.713Z,11.23
2023-02-24T13:51:05.072Z,10.20
2023-02-24T13:53:58.879Z,10.30
2023-02-24T13:56:45.472Z,10.20
2023-02-24T13:59:47.731Z,11.60
2023-02-24T14:02:20.745Z,9.20
2023-02-24T14:04:54.771Z,9.67
2023-02-24T14:07:29.561Z,9.53
2023-02-24T14:10:05.263Z,10.80
2023-02-24T14:12:38.717Z,11.07
2023-02-24T14:15:20.240Z,10.60
2023-02-24T14:18:00.879Z,11.33
2023-02-24T14:20:35.132Z,11.97
2023-02-24T14:23:05.296Z,11.70
2023-02-24T14:25:41.681Z,10.73
2023-02-24T14:28:25.286Z,11.50
2023-02-24T14:31:01.688Z,13.20
2023-02-24T14:33:36.779Z,14.07
2023-02-24T14:36:16.258Z,15.77
2023-02-24T14:38:48.125Z,15.00
2023-02-24T14:41:25.124Z,15.57
2023-02-24T14:43:56.611Z,16.23
2023-02-24T14:46:29.443Z,14.17
2023-02-24T14:48:59.505Z,16.93
2023-02-24T14:51:34.967Z,19.87
2023-02-24T14:54:12.113Z,19.60
2023-02-24T14:56:42.353Z,18.10
2023-02-24T14:59:28.301Z,23.43
2023-02-24T15:02:02.897Z,19.47
2023-02-24T15:04:42.543Z,20.03
2023-02-24T15:07:21.730Z,18.70
2023-02-24T15:09:54.074Z,19.60
2023-02-24T15:12:32.243Z,19.73
2023-02-24T15:15:06.899Z,20.10
2023-02-24T15:17:43.640Z,19.70
2023-02-24T15:20:31.352Z,19.50
2023-02-24T15:23:02.122Z,16.90
2023-02-24T15:25:44.640Z,21.23
2023-02-24T15:28:31.003Z,16.57
2023-02-24T15:31:10.911Z,17.37
2023-02-24T15:33:47.086Z,17.97
2023-02-24T15:36:23.973Z,18.33
2023-02-24T15:38:57.892Z,17.80
2023-02-24T15:41:29.083Z,27.07
2023-02-24T15:43:59.097Z,23.93
2023-02-24T15:46:33.389Z,31.87
2023-02-24T15:49:08.531Z,19.63
2023-02-24T15:51:42.608Z,17.43
2023-02-24T15:54:17.824Z,17.10
2023-02-24T15:56:49.567Z,17.87
2023-02-24T15:59:22.117Z,17.07
2023-02-24T16:01:52.491Z,16.00
2023-02-24T16:04:27.586Z,15.50
2023-02-24T16:07:00.244Z,18.67
2023-02-24T16:09:38.171Z,15.23
2023-02-24T16:12:14.673Z,16.17
2023-02-24T16:14:45.381Z,15.80
2023-02-24T16:17:30.816Z,16.50
2023-02-24T16:20:08.606Z,17.43
2023-02-24T16:22:39.108Z,19.20
2023-02-24T16:25:10.818Z,18.70
2023-02-24T16:27:40.879Z,17.37
2023-02-24T16:30:22.314Z,21.27
2023-02-24T16:32:52.895Z,21.17
2023-02-24T16:35:25.833Z,18.83
2023-02-24T16:37:55.859Z,16.47
2023-02-24T16:40:30.821Z,14.00
2023-02-24T16:43:00.934Z,14.93
2023-02-24T16:45:32.443Z,12.43
2023-02-24T16:48:04.679Z,13.90
2023-02-24T16:50:41.709Z,10.70
2023-02-24T16:53:16.661Z,13.17
2023-02-24T16:55:47.257Z,12.60
2023-02-24T16:58:18.252Z,12.90
2023-02-24T17:00:52.559Z,13.23
2023-02-24T17:03:27.106Z,14.73
2023-02-24T17:06:00.035Z,15.40
2023-02-24T17:08:30.288Z,16.20
2023-02-24T17:11:00.427Z,19.00
2023-02-24T17:13:30.424Z,17.20
2023-02-24T17:16:00.448Z,15.80
2023-02-24T17:18:30.536Z,14.60
2023-02-24T17:21:03.210Z,15.43
2023-02-24T17:23:33.227Z,15.33
2023-02-24T17:26:05.050Z,14.37
2023-02-24T17:28:35.070Z,14.97
2023-02-24T17:31:05.492Z,15.73
2023-02-24T17:33:35.595Z,14.17
2023-02-24T17:36:08.979Z,15.80
2023-02-24T17:38:39.102Z,15.03
2023-02-24T17:41:10.641Z,16.27
2023-02-24T17:43:40.710Z,15.70
2023-02-24T17:46:10.854Z,15.53
2023-02-24T17:48:40.889Z,15.63
2023-02-24T17:51:16.943Z,17.20
2023-02-24T17:53:47.278Z,15.03
2023-02-24T17:56:17.312Z,13.17
2023-02-24T17:58:47.281Z,13.57
2023-02-24T18:01:17.397Z,14.87
2023-02-24T18:03:47.526Z,14.50
2023-02-24T18:06:20.339Z,12.60
2023-02-24T18:08:50.588Z,11.27
2023-02-24T18:11:22.746Z,10.37
2023-02-24T18:13:55.164Z,7.07
2023-02-24T18:16:25.649Z,9.50
2023-02-24T18:18:56.197Z,6.93
2023-02-24T18:21:29.365Z,7.93
2023-02-24T18:23:59.524Z,7.77
2023-02-24T18:26:29.904Z,9.33
2023-02-24T18:29:00.197Z,7.87
2023-02-24T18:31:33.664Z,9.10
2023-02-24T18:34:04.080Z,7.87
2023-02-24T18:36:37.124Z,7.80
2023-02-24T18:39:09.108Z,7.50
2023-02-24T18:41:39.072Z,7.00
2023-02-24T18:44:09.305Z,5.10
2023-02-24T18:46:39.686Z,4.57
2023-02-24T18:49:11.822Z,5.63
2023-02-24T18:51:46.022Z,3.67
2023-02-24T18:54:16.537Z,4.40
2023-02-24T18:56:46.673Z,3.93
2023-02-24T18:59:16.766Z,2.90
2023-02-24T19:01:46.991Z,3.87
2023-02-24T19:04:17.705Z,3.60
2023-02-24T19:06:50.957Z,4.30
2023-02-24T19:09:22.480Z,4.30
2023-02-24T19:11:54.250Z,3.13
2023-02-24T19:14:24.302Z,2.70
2023-02-24T19:16:54.327Z,3.03
2023-02-24T19:19:24.489Z,3.77
2023-02-24T19:21:57.068Z,3.27
2023-02-24T19:24:27.234Z,2.70
2023-02-24T19:26:57.729Z,3.27
2023-02-24T19:29:28.135Z,5.10
2023-02-24T19:31:58.393Z,5.60
2023-02-24T19:34:28.512Z,5.40
2023-02-24T19:37:01.124Z,6.80
2023-02-24T19:39:31.153Z,10.10
2023-02-24T19:42:01.495Z,8.70
2023-02-24T19:44:31.503Z,10.03
2023-02-24T19:47:01.620Z,11.73
2023-02-24T19:49:31.639Z,10.80
2023-02-24T19:52:04.371Z,11.97
2023-02-24T19:54:34.410Z,11.87
2023-02-24T19:57:04.696Z,15.20
2023-02-24T19:59:34.749Z,14.00
2023-02-24T20:02:05.064Z,11.73
2023-02-24T20:04:36.418Z,12.57
2023-02-24T20:07:09.112Z,11.20
2023-02-24T20:09:39.107Z,12.43
2023-02-24T20:12:09.672Z,12.50
2023-02-24T20:14:39.652Z,12.90
2023-02-24T20:17:10.089Z,14.03
2023-02-24T20:19:40.186Z,13.03
2023-02-24T20:22:13.842Z,13.80
2023-02-24T20:24:43.859Z,14.37
2023-02-24T20:27:13.875Z,12.53
2023-02-24T20:29:43.930Z,15.60
2023-02-24T20:32:15.172Z,13.83
2023-02-24T20:34:46.251Z,12.97
2023-02-24T20:37:19.216Z,14.53
2023-02-24T20:39:49.272Z,12.70
2023-02-24T20:42:19.276Z,14.20
2023-02-24T20:44:49.429Z,13.67
2023-02-24T20:47:19.477Z,13.97
2023-02-24T20:49:49.805Z,14.90
2023-02-24T20:52:22.376Z,15.97
2023-02-24T20:54:52.594Z,14.00
2023-02-24T20:57:22.689Z,13.73
2023-02-24T21:00:03.008Z,13.73
2023-02-24T21:02:33.725Z,14.07
2023-02-24T21:05:03.852Z,15.50
2023-02-24T21:07:37.091Z,14.20
2023-02-24T21:10:08.302Z,14.10
2023-02-24T21:12:38.421Z,14.53
2023-02-24T21:15:12.322Z,12.93
2023-02-24T21:17:43.180Z,14.20
2023-02-24T21:20:15.896Z,14.27
2023-02-24T21:22:48.446Z,13.20
2023-02-24T21:25:18.523Z,15.33
2023-02-24T21:27:48.879Z,12.20
2023-02-24T21:30:19.093Z,11.70
2023-02-24T21:32:49.174Z,10.03
2023-02-24T21:35:19.471Z,6.70
2023-02-24T21:37:52.272Z,7.37
2023-02-24T21:40:22.626Z,7.50
2023-02-24T21:42:52.656Z,6.30
2023-02-24T21:45:23.030Z,7.20
2023-02-24T21:47:53.403Z,6.20
2023-02-24T21:50:24.734Z,5.03
2023-02-24T21:52:57.316Z,4.43
2023-02-24T21:55:27.644Z,2.80
2023-02-24T21:57:57.717Z,3.20
2023-02-24T22:00:28.678Z,2.73
2023-02-24T22:02:59.309Z,3.67
2023-02-24T22:05:29.991Z,3.87
2023-02-24T22:08:02.553Z,3.93
2023-02-24T22:10:32.536Z,4.27
2023-02-24T22:13:02.572Z,3.60
2023-02-24T22:15:33.104Z,3.57
2023-02-24T22:18:03.215Z,3.43
2023-02-24T22:20:33.364Z,3.77
2023-02-24T22:23:05.960Z,3.80
2023-02-24T22:25:37.931Z,4.73
2023-02-24T22:28:08.389Z,5.03
2023-02-24T22:30:38.379Z,6.97
2023-02-24T22:33:08.397Z,6.60
2023-02-24T22:35:38.721Z,5.70
2023-02-24T22:38:11.279Z,6.40
2023-02-24T22:40:41.315Z,7.70
2023-02-24T22:43:11.400Z,5.40
2023-02-24T22:45:41.537Z,6.00
2023-02-24T22:48:11.590Z,6.20
2023-02-24T22:50:41.594Z,6.50
2023-02-24T22:53:14.214Z,6.27
2023-02-24T22:55:49.149Z,7.00
2023-02-24T22:58:20.234Z,6.63
2023-02-24T23:00:51.144Z,5.70
2023-02-24T23:03:23.785Z,7.17
2023-02-24T23:05:58.211Z,5.00
2023-02-24T23:08:33.102Z,5.17
2023-02-24T23:11:08.126Z,6.40
2023-02-24T23:13:38.404Z,4.83
2023-02-24T23:16:11.857Z,5.40
2023-02-24T23:18:47.117Z,5.60
2023-02-24T23:21:17.775Z,6.23
2023-02-24T23:23:50.389Z,6.87
2023-02-24T23:26:20.904Z,5.40
2023-02-24T23:28:51.184Z,6.70
2023-02-24T23:31:22.929Z,7.37
2023-02-24T23:33:53.229Z,6.47
2023-02-24T23:36:24.390Z,6.17
2023-02-24T23:38:57.119Z,6.90
2023-02-24T23:41:27.224Z,6.83
2023-02-24T23:43:57.463Z,5.80
2023-02-24T23:46:27.576Z,5.97
2023-02-24T23:48:59.415Z,5.70
2023-02-24T23:51:45.781Z,6.83
2023-02-24T23:54:21.014Z,7.10
2023-02-24T23:56:51.237Z,6.10
2023-02-24T23:59:21.318Z,6.53
